Ephesus, Georgia
Current Conditions -  °F | °C
As of 5:15 PM on Saturday 25 Oct 2014 (Local Time) from KCTJ Reporting Station
Clear Clear  
Wind Chill: 73°   Ceiling: Unl
Heat Index: 73°   Visibility: 10mi
Dew Point: 46°   Wind: 5mph
Humidity: 38%   Direction: 340°NNW
Pressure: 30.03"   Gusts: NA
Location:  33.4261°N, 85.1637°W
Report Text: KCTJ 252115Z AUTO 34004KT 10SM CLR 23/08 A3003 RMK AO2
Loading
Personal Weather Stations






























Interactive Weather Map
Tropical Storm Tracking
New forecast layout! Learn more

10-Day Weather Forecast

Advertisements
Track Severe Weather on mobile